sensor_id;sensor_type;location;lat;lon;timestamp;P1;durP1;ratioP1;P2;durP2;ratioP2
70761;SDS011;58360;0.000;0.000;2023-02-28T00:00:18;9.60;;;6.72;;
70761;SDS011;58360;0.000;0.000;2023-02-28T00:02:44;12.95;;;6.15;;
70761;SDS011;58360;0.000;0.000;2023-02-28T00:05:12;12.10;;;6.65;;
70761;SDS011;58360;0.000;0.000;2023-02-28T00:07:40;13.23;;;6.25;;
70761;SDS011;58360;0.000;0.000;2023-02-28T00:10:07;13.68;;;6.15;;
70761;SDS011;58360;0.000;0.000;2023-02-28T00:12:38;8.35;;;5.75;;
70761;SDS011;58360;0.000;0.000;2023-02-28T00:15:08;14.88;;;6.78;;
70761;SDS011;58360;0.000;0.000;2023-02-28T00:17:35;14.07;;;7.07;;
70761;SDS011;58360;0.000;0.000;2023-02-28T00:20:01;14.40;;;6.35;;
70761;SDS011;58360;0.000;0.000;2023-02-28T00:22:47;10.32;;;6.80;;
70761;SDS011;58360;0.000;0.000;2023-02-28T00:25:15;13.77;;;7.88;;
70761;SDS011;58360;0.000;0.000;2023-02-28T00:27:43;12.82;;;6.82;;
70761;SDS011;58360;0.000;0.000;2023-02-28T00:30:14;15.75;;;7.43;;
70761;SDS011;58360;0.000;0.000;2023-02-28T00:32:42;13.43;;;6.65;;
70761;SDS011;58360;0.000;0.000;2023-02-28T00:35:08;12.43;;;7.05;;
70761;SDS011;58360;0.000;0.000;2023-02-28T00:37:35;11.90;;;6.28;;
70761;SDS011;58360;0.000;0.000;2023-02-28T00:40:01;11.63;;;6.50;;
70761;SDS011;58360;0.000;0.000;2023-02-28T00:42:29;11.30;;;6.35;;
70761;SDS011;58360;0.000;0.000;2023-02-28T00:44:55;17.05;;;7.78;;
70761;SDS011;58360;0.000;0.000;2023-02-28T00:47:21;13.70;;;6.80;;
70761;SDS011;58360;0.000;0.000;2023-02-28T00:49:47;13.18;;;6.72;;
70761;SDS011;58360;0.000;0.000;2023-02-28T00:52:12;13.35;;;7.13;;
70761;SDS011;58360;0.000;0.000;2023-02-28T00:54:38;14.63;;;7.47;;
70761;SDS011;58360;0.000;0.000;2023-02-28T00:57:04;16.15;;;7.28;;
70761;SDS011;58360;0.000;0.000;2023-02-28T00:59:29;15.00;;;7.70;;
70761;SDS011;58360;0.000;0.000;2023-02-28T01:01:55;11.82;;;6.88;;
70761;SDS011;58360;0.000;0.000;2023-02-28T01:04:21;13.48;;;7.00;;
70761;SDS011;58360;0.000;0.000;2023-02-28T01:06:47;14.32;;;7.57;;
70761;SDS011;58360;0.000;0.000;2023-02-28T01:09:12;12.05;;;7.68;;
70761;SDS011;58360;0.000;0.000;2023-02-28T01:11:38;12.85;;;7.70;;
70761;SDS011;58360;0.000;0.000;2023-02-28T01:14:05;13.13;;;6.90;;
70761;SDS011;58360;0.000;0.000;2023-02-28T01:16:31;18.92;;;8.27;;
70761;SDS011;58360;0.000;0.000;2023-02-28T01:18:57;13.70;;;8.23;;
70761;SDS011;58360;0.000;0.000;2023-02-28T01:21:23;16.67;;;7.50;;
70761;SDS011;58360;0.000;0.000;2023-02-28T01:23:49;14.65;;;7.65;;
70761;SDS011;58360;0.000;0.000;2023-02-28T01:26:16;16.05;;;8.40;;
70761;SDS011;58360;0.000;0.000;2023-02-28T01:28:44;12.13;;;7.82;;
70761;SDS011;58360;0.000;0.000;2023-02-28T01:31:11;15.05;;;8.05;;
70761;SDS011;58360;0.000;0.000;2023-02-28T01:33:37;15.55;;;8.07;;
70761;SDS011;58360;0.000;0.000;2023-02-28T01:36:09;13.40;;;7.32;;
70761;SDS011;58360;0.000;0.000;2023-02-28T01:38:37;18.60;;;9.27;;
70761;SDS011;58360;0.000;0.000;2023-02-28T01:41:03;16.65;;;8.57;;
70761;SDS011;58360;0.000;0.000;2023-02-28T01:46:08;14.50;;;7.93;;
70761;SDS011;58360;0.000;0.000;2023-02-28T01:48:35;14.40;;;8.27;;
70761;SDS011;58360;0.000;0.000;2023-02-28T01:51:05;11.95;;;7.38;;
70761;SDS011;58360;0.000;0.000;2023-02-28T01:53:37;14.07;;;7.90;;
70761;SDS011;58360;0.000;0.000;2023-02-28T01:56:08;12.50;;;8.38;;
70761;SDS011;58360;0.000;0.000;2023-02-28T01:58:36;15.35;;;7.80;;
70761;SDS011;58360;0.000;0.000;2023-02-28T02:01:02;12.93;;;7.65;;
70761;SDS011;58360;0.000;0.000;2023-02-28T02:03:29;14.85;;;8.32;;
70761;SDS011;58360;0.000;0.000;2023-02-28T02:05:56;20.13;;;8.00;;
70761;SDS011;58360;0.000;0.000;2023-02-28T02:08:26;16.27;;;8.63;;
70761;SDS011;58360;0.000;0.000;2023-02-28T02:10:54;16.05;;;8.52;;
70761;SDS011;58360;0.000;0.000;2023-02-28T02:15:57;19.48;;;7.72;;
70761;SDS011;58360;0.000;0.000;2023-02-28T02:32:35;18.42;;;8.00;;
70761;SDS011;58360;0.000;0.000;2023-02-28T02:35:27;15.30;;;8.18;;
70761;SDS011;58360;0.000;0.000;2023-02-28T02:41:09;13.43;;;8.00;;
70761;SDS011;58360;0.000;0.000;2023-02-28T02:44:18;14.85;;;8.35;;
70761;SDS011;58360;0.000;0.000;2023-02-28T02:46:53;15.70;;;7.97;;
70761;SDS011;58360;0.000;0.000;2023-02-28T02:49:28;12.52;;;7.38;;
70761;SDS011;58360;0.000;0.000;2023-02-28T02:52:02;12.85;;;7.70;;
70761;SDS011;58360;0.000;0.000;2023-02-28T02:54:31;13.60;;;8.32;;
70761;SDS011;58360;0.000;0.000;2023-02-28T02:57:05;16.30;;;7.32;;
70761;SDS011;58360;0.000;0.000;2023-02-28T02:59:36;14.02;;;8.10;;
70761;SDS011;58360;0.000;0.000;2023-02-28T03:02:06;12.48;;;7.90;;
70761;SDS011;58360;0.000;0.000;2023-02-28T03:04:39;19.05;;;8.23;;
70761;SDS011;58360;0.000;0.000;2023-02-28T03:07:11;14.70;;;7.80;;
70761;SDS011;58360;0.000;0.000;2023-02-28T03:09:37;13.23;;;7.57;;
70761;SDS011;58360;0.000;0.000;2023-02-28T03:12:02;17.88;;;8.23;;
70761;SDS011;58360;0.000;0.000;2023-02-28T03:28:10;13.52;;;7.63;;
70761;SDS011;58360;0.000;0.000;2023-02-28T03:30:53;12.88;;;7.50;;
70761;SDS011;58360;0.000;0.000;2023-02-28T03:33:24;16.83;;;7.60;;
70761;SDS011;58360;0.000;0.000;2023-02-28T03:35:59;15.80;;;8.35;;
70761;SDS011;58360;0.000;0.000;2023-02-28T03:38:35;13.55;;;7.57;;
70761;SDS011;58360;0.000;0.000;2023-02-28T03:41:14;14.00;;;7.15;;
70761;SDS011;58360;0.000;0.000;2023-02-28T03:43:42;16.60;;;7.60;;
70761;SDS011;58360;0.000;0.000;2023-02-28T03:46:17;12.60;;;7.53;;
70761;SDS011;58360;0.000;0.000;2023-02-28T03:48:51;15.45;;;8.20;;
70761;SDS011;58360;0.000;0.000;2023-02-28T03:51:37;13.57;;;7.38;;
70761;SDS011;58360;0.000;0.000;2023-02-28T03:54:07;14.40;;;7.32;;
70761;SDS011;58360;0.000;0.000;2023-02-28T03:56:38;13.45;;;7.97;;
70761;SDS011;58360;0.000;0.000;2023-02-28T04:02:19;17.52;;;7.07;;
70761;SDS011;58360;0.000;0.000;2023-02-28T04:04:45;15.45;;;7.28;;
70761;SDS011;58360;0.000;0.000;2023-02-28T04:07:13;14.10;;;7.63;;
70761;SDS011;58360;0.000;0.000;2023-02-28T04:09:39;13.25;;;7.25;;
70761;SDS011;58360;0.000;0.000;2023-02-28T04:12:06;14.93;;;8.10;;
70761;SDS011;58360;0.000;0.000;2023-02-28T04:14:31;15.93;;;7.80;;
70761;SDS011;58360;0.000;0.000;2023-02-28T04:16:57;16.20;;;7.95;;
70761;SDS011;58360;0.000;0.000;2023-02-28T04:19:23;13.48;;;7.88;;
70761;SDS011;58360;0.000;0.000;2023-02-28T04:21:51;12.60;;;7.43;;
70761;SDS011;58360;0.000;0.000;2023-02-28T04:24:21;18.55;;;8.00;;
70761;SDS011;58360;0.000;0.000;2023-02-28T04:26:52;14.43;;;7.35;;
70761;SDS011;58360;0.000;0.000;2023-02-28T04:29:21;14.70;;;7.60;;
70761;SDS011;58360;0.000;0.000;2023-02-28T04:31:49;15.43;;;8.30;;
70761;SDS011;58360;0.000;0.000;2023-02-28T04:34:15;12.27;;;7.85;;
70761;SDS011;58360;0.000;0.000;2023-02-28T04:36:41;17.40;;;7.82;;
70761;SDS011;58360;0.000;0.000;2023-02-28T04:39:08;14.10;;;7.50;;
70761;SDS011;58360;0.000;0.000;2023-02-28T04:41:34;12.35;;;7.43;;
70761;SDS011;58360;0.000;0.000;2023-02-28T04:44:00;19.63;;;8.52;;
70761;SDS011;58360;0.000;0.000;2023-02-28T04:46:26;13.40;;;7.47;;
70761;SDS011;58360;0.000;0.000;2023-02-28T04:48:51;15.65;;;8.00;;
70761;SDS011;58360;0.000;0.000;2023-02-28T04:51:19;14.55;;;8.40;;
70761;SDS011;58360;0.000;0.000;2023-02-28T04:53:45;15.20;;;7.30;;
70761;SDS011;58360;0.000;0.000;2023-02-28T04:56:13;11.10;;;7.03;;
70761;SDS011;58360;0.000;0.000;2023-02-28T04:58:40;15.60;;;7.03;;
70761;SDS011;58360;0.000;0.000;2023-02-28T05:01:17;15.25;;;7.88;;
70761;SDS011;58360;0.000;0.000;2023-02-28T05:03:50;15.80;;;7.53;;
70761;SDS011;58360;0.000;0.000;2023-02-28T05:06:18;11.55;;;6.50;;
70761;SDS011;58360;0.000;0.000;2023-02-28T05:08:45;15.30;;;6.78;;
70761;SDS011;58360;0.000;0.000;2023-02-28T05:11:15;16.13;;;7.68;;
70761;SDS011;58360;0.000;0.000;2023-02-28T05:13:43;16.42;;;7.18;;
70761;SDS011;58360;0.000;0.000;2023-02-28T05:16:09;12.50;;;6.95;;
70761;SDS011;58360;0.000;0.000;2023-02-28T05:18:35;12.32;;;7.15;;
70761;SDS011;58360;0.000;0.000;2023-02-28T05:21:01;14.65;;;7.57;;
70761;SDS011;58360;0.000;0.000;2023-02-28T05:23:29;12.73;;;7.15;;
70761;SDS011;58360;0.000;0.000;2023-02-28T05:25:55;15.30;;;7.63;;
70761;SDS011;58360;0.000;0.000;2023-02-28T05:28:21;14.52;;;6.82;;
70761;SDS011;58360;0.000;0.000;2023-02-28T05:30:47;12.20;;;6.90;;
70761;SDS011;58360;0.000;0.000;2023-02-28T05:33:13;13.93;;;7.65;;
70761;SDS011;58360;0.000;0.000;2023-02-28T05:35:40;15.02;;;6.78;;
70761;SDS011;58360;0.000;0.000;2023-02-28T05:38:07;14.77;;;6.32;;
70761;SDS011;58360;0.000;0.000;2023-02-28T05:40:33;16.50;;;6.78;;
70761;SDS011;58360;0.000;0.000;2023-02-28T05:42:59;16.30;;;7.72;;
70761;SDS011;58360;0.000;0.000;2023-02-28T05:45:25;15.93;;;7.43;;
70761;SDS011;58360;0.000;0.000;2023-02-28T05:47:54;11.55;;;6.80;;
70761;SDS011;58360;0.000;0.000;2023-02-28T05:50:21;17.17;;;6.80;;
70761;SDS011;58360;0.000;0.000;2023-02-28T05:52:52;14.80;;;6.68;;
70761;SDS011;58360;0.000;0.000;2023-02-28T05:55:18;11.68;;;6.55;;
70761;SDS011;58360;0.000;0.000;2023-02-28T05:57:44;20.92;;;7.55;;
70761;SDS011;58360;0.000;0.000;2023-02-28T06:00:10;13.20;;;7.15;;
70761;SDS011;58360;0.000;0.000;2023-02-28T06:02:38;20.83;;;6.80;;
70761;SDS011;58360;0.000;0.000;2023-02-28T06:05:04;12.43;;;6.82;;
70761;SDS011;58360;0.000;0.000;2023-02-28T06:07:30;14.55;;;7.72;;
70761;SDS011;58360;0.000;0.000;2023-02-28T06:09:55;13.70;;;6.80;;
70761;SDS011;58360;0.000;0.000;2023-02-28T06:12:21;16.60;;;6.95;;
70761;SDS011;58360;0.000;0.000;2023-02-28T06:14:46;11.95;;;7.32;;
70761;SDS011;58360;0.000;0.000;2023-02-28T06:17:12;14.77;;;6.55;;
70761;SDS011;58360;0.000;0.000;2023-02-28T06:19:38;19.60;;;7.45;;
70761;SDS011;58360;0.000;0.000;2023-02-28T06:22:03;11.10;;;6.82;;
70761;SDS011;58360;0.000;0.000;2023-02-28T06:24:29;13.75;;;7.38;;
70761;SDS011;58360;0.000;0.000;2023-02-28T06:26:56;15.80;;;7.60;;
70761;SDS011;58360;0.000;0.000;2023-02-28T06:29:24;15.23;;;6.97;;
70761;SDS011;58360;0.000;0.000;2023-02-28T06:31:50;16.27;;;7.50;;
70761;SDS011;58360;0.000;0.000;2023-02-28T06:34:15;11.75;;;6.78;;
70761;SDS011;58360;0.000;0.000;2023-02-28T06:36:42;14.63;;;7.10;;
70761;SDS011;58360;0.000;0.000;2023-02-28T06:39:08;21.27;;;7.82;;
70761;SDS011;58360;0.000;0.000;2023-02-28T06:41:34;12.30;;;7.03;;
70761;SDS011;58360;0.000;0.000;2023-02-28T06:44:13;13.18;;;6.68;;
70761;SDS011;58360;0.000;0.000;2023-02-28T06:46:40;12.07;;;6.38;;
70761;SDS011;58360;0.000;0.000;2023-02-28T06:49:06;11.15;;;6.45;;
70761;SDS011;58360;0.000;0.000;2023-02-28T06:51:37;12.20;;;6.40;;
70761;SDS011;58360;0.000;0.000;2023-02-28T06:54:04;9.95;;;6.03;;
70761;SDS011;58360;0.000;0.000;2023-02-28T06:56:34;10.15;;;6.15;;
70761;SDS011;58360;0.000;0.000;2023-02-28T06:59:00;23.15;;;8.32;;
70761;SDS011;58360;0.000;0.000;2023-02-28T07:01:25;16.88;;;7.63;;
70761;SDS011;58360;0.000;0.000;2023-02-28T07:03:52;14.38;;;7.70;;
70761;SDS011;58360;0.000;0.000;2023-02-28T07:06:19;15.95;;;9.55;;
70761;SDS011;58360;0.000;0.000;2023-02-28T07:08:47;13.20;;;6.60;;
70761;SDS011;58360;0.000;0.000;2023-02-28T07:11:14;19.25;;;6.32;;
70761;SDS011;58360;0.000;0.000;2023-02-28T07:13:39;15.90;;;7.07;;
70761;SDS011;58360;0.000;0.000;2023-02-28T07:16:06;10.93;;;6.53;;
70761;SDS011;58360;0.000;0.000;2023-02-28T07:18:34;13.57;;;6.32;;
70761;SDS011;58360;0.000;0.000;2023-02-28T07:21:07;12.18;;;6.95;;
70761;SDS011;58360;0.000;0.000;2023-02-28T07:23:34;13.63;;;6.68;;
70761;SDS011;58360;0.000;0.000;2023-02-28T07:26:00;13.18;;;6.53;;
70761;SDS011;58360;0.000;0.000;2023-02-28T07:28:26;11.27;;;5.18;;
70761;SDS011;58360;0.000;0.000;2023-02-28T07:30:52;15.10;;;6.82;;
70761;SDS011;58360;0.000;0.000;2023-02-28T07:33:17;12.02;;;6.22;;
70761;SDS011;58360;0.000;0.000;2023-02-28T07:35:43;28.95;;;6.90;;
70761;SDS011;58360;0.000;0.000;2023-02-28T07:38:09;9.55;;;5.50;;
70761;SDS011;58360;0.000;0.000;2023-02-28T07:40:35;15.27;;;5.97;;
70761;SDS011;58360;0.000;0.000;2023-02-28T07:43:02;13.50;;;5.78;;
70761;SDS011;58360;0.000;0.000;2023-02-28T07:45:28;12.75;;;5.75;;
70761;SDS011;58360;0.000;0.000;2023-02-28T07:47:55;13.10;;;6.00;;
70761;SDS011;58360;0.000;0.000;2023-02-28T07:50:21;13.45;;;6.95;;
70761;SDS011;58360;0.000;0.000;2023-02-28T07:52:47;10.90;;;5.38;;
70761;SDS011;58360;0.000;0.000;2023-02-28T07:55:12;13.20;;;5.63;;
70761;SDS011;58360;0.000;0.000;2023-02-28T07:57:39;11.10;;;5.45;;
70761;SDS011;58360;0.000;0.000;2023-02-28T08:00:06;13.55;;;5.93;;
70761;SDS011;58360;0.000;0.000;2023-02-28T08:02:35;15.10;;;5.85;;
70761;SDS011;58360;0.000;0.000;2023-02-28T08:05:01;10.30;;;5.75;;
70761;SDS011;58360;0.000;0.000;2023-02-28T08:07:27;12.48;;;5.47;;
70761;SDS011;58360;0.000;0.000;2023-02-28T08:09:53;14.23;;;4.72;;
70761;SDS011;58360;0.000;0.000;2023-02-28T08:12:18;8.63;;;4.82;;
70761;SDS011;58360;0.000;0.000;2023-02-28T08:14:45;9.35;;;4.85;;
70761;SDS011;58360;0.000;0.000;2023-02-28T08:17:10;9.63;;;4.30;;
70761;SDS011;58360;0.000;0.000;2023-02-28T08:19:36;12.30;;;4.80;;
70761;SDS011;58360;0.000;0.000;2023-02-28T08:22:02;10.88;;;4.43;;
70761;SDS011;58360;0.000;0.000;2023-02-28T08:24:28;7.68;;;3.70;;
70761;SDS011;58360;0.000;0.000;2023-02-28T08:26:54;15.45;;;4.93;;
70761;SDS011;58360;0.000;0.000;2023-02-28T08:29:20;8.02;;;4.32;;
70761;SDS011;58360;0.000;0.000;2023-02-28T08:31:45;10.88;;;4.72;;
70761;SDS011;58360;0.000;0.000;2023-02-28T08:34:12;10.80;;;5.05;;
70761;SDS011;58360;0.000;0.000;2023-02-28T08:36:39;9.30;;;4.35;;
70761;SDS011;58360;0.000;0.000;2023-02-28T08:39:05;12.70;;;4.40;;
70761;SDS011;58360;0.000;0.000;2023-02-28T08:41:32;7.45;;;3.70;;
70761;SDS011;58360;0.000;0.000;2023-02-28T08:43:58;8.05;;;3.60;;
70761;SDS011;58360;0.000;0.000;2023-02-28T08:46:25;10.93;;;4.03;;
70761;SDS011;58360;0.000;0.000;2023-02-28T08:48:51;5.63;;;3.08;;
70761;SDS011;58360;0.000;0.000;2023-02-28T08:51:21;8.30;;;3.38;;
70761;SDS011;58360;0.000;0.000;2023-02-28T08:53:51;5.15;;;2.85;;
70761;SDS011;58360;0.000;0.000;2023-02-28T08:56:18;7.15;;;3.10;;
70761;SDS011;58360;0.000;0.000;2023-02-28T08:58:45;6.50;;;3.22;;
70761;SDS011;58360;0.000;0.000;2023-02-28T09:01:12;6.75;;;2.95;;
70761;SDS011;58360;0.000;0.000;2023-02-28T09:03:40;6.68;;;3.28;;
70761;SDS011;58360;0.000;0.000;2023-02-28T09:06:07;9.13;;;3.42;;
70761;SDS011;58360;0.000;0.000;2023-02-28T09:08:33;5.22;;;3.10;;
70761;SDS011;58360;0.000;0.000;2023-02-28T09:10:59;13.10;;;3.45;;
70761;SDS011;58360;0.000;0.000;2023-02-28T09:13:26;8.45;;;3.13;;
70761;SDS011;58360;0.000;0.000;2023-02-28T09:15:53;6.25;;;2.60;;
70761;SDS011;58360;0.000;0.000;2023-02-28T09:18:19;9.48;;;2.85;;
70761;SDS011;58360;0.000;0.000;2023-02-28T09:20:45;9.60;;;3.28;;
70761;SDS011;58360;0.000;0.000;2023-02-28T09:23:12;8.43;;;3.00;;
70761;SDS011;58360;0.000;0.000;2023-02-28T09:25:40;4.47;;;2.42;;
70761;SDS011;58360;0.000;0.000;2023-02-28T09:28:14;7.55;;;2.67;;
70761;SDS011;58360;0.000;0.000;2023-02-28T09:30:41;6.05;;;2.63;;
70761;SDS011;58360;0.000;0.000;2023-02-28T09:33:08;5.07;;;2.53;;
70761;SDS011;58360;0.000;0.000;2023-02-28T09:35:34;15.95;;;2.70;;
70761;SDS011;58360;0.000;0.000;2023-02-28T09:38:02;13.25;;;3.10;;
70761;SDS011;58360;0.000;0.000;2023-02-28T09:40:28;5.15;;;2.40;;
70761;SDS011;58360;0.000;0.000;2023-02-28T09:42:55;4.40;;;2.50;;
70761;SDS011;58360;0.000;0.000;2023-02-28T09:45:28;6.20;;;2.50;;
70761;SDS011;58360;0.000;0.000;2023-02-28T09:48:02;7.13;;;3.30;;
70761;SDS011;58360;0.000;0.000;2023-02-28T09:50:36;8.55;;;2.92;;
70761;SDS011;58360;0.000;0.000;2023-02-28T09:53:29;4.65;;;2.40;;
70761;SDS011;58360;0.000;0.000;2023-02-28T09:56:01;4.75;;;2.67;;
70761;SDS011;58360;0.000;0.000;2023-02-28T09:58:54;5.82;;;2.55;;
70761;SDS011;58360;0.000;0.000;2023-02-28T10:11:11;5.65;;;2.70;;
70761;SDS011;58360;0.000;0.000;2023-02-28T10:13:31;4.50;;;2.35;;
70761;SDS011;58360;0.000;0.000;2023-02-28T10:16:14;6.85;;;2.50;;
70761;SDS011;58360;0.000;0.000;2023-02-28T10:21:29;4.53;;;2.40;;
70761;SDS011;58360;0.000;0.000;2023-02-28T10:24:27;6.05;;;2.22;;
70761;SDS011;58360;0.000;0.000;2023-02-28T10:27:13;4.38;;;2.22;;
70761;SDS011;58360;0.000;0.000;2023-02-28T10:29:50;7.28;;;2.50;;
70761;SDS011;58360;0.000;0.000;2023-02-28T10:32:18;7.30;;;3.55;;
70761;SDS011;58360;0.000;0.000;2023-02-28T10:34:50;4.22;;;2.17;;
70761;SDS011;58360;0.000;0.000;2023-02-28T10:37:22;3.67;;;2.00;;
70761;SDS011;58360;0.000;0.000;2023-02-28T10:39:47;7.05;;;2.22;;
70761;SDS011;58360;0.000;0.000;2023-02-28T10:42:24;7.18;;;2.90;;
70761;SDS011;58360;0.000;0.000;2023-02-28T10:47:41;4.47;;;2.40;;
70761;SDS011;58360;0.000;0.000;2023-02-28T10:50:50;5.80;;;2.42;;
70761;SDS011;58360;0.000;0.000;2023-02-28T11:01:52;6.43;;;2.20;;
70761;SDS011;58360;0.000;0.000;2023-02-28T11:06:47;3.92;;;1.90;;
70761;SDS011;58360;0.000;0.000;2023-02-28T11:09:24;8.73;;;2.35;;
70761;SDS011;58360;0.000;0.000;2023-02-28T11:11:57;18.17;;;2.92;;
70761;SDS011;58360;0.000;0.000;2023-02-28T11:14:25;4.18;;;2.15;;
70761;SDS011;58360;0.000;0.000;2023-02-28T11:16:57;4.20;;;2.20;;
70761;SDS011;58360;0.000;0.000;2023-02-28T11:22:00;9.77;;;2.30;;
70761;SDS011;58360;0.000;0.000;2023-02-28T11:24:28;3.58;;;1.92;;
70761;SDS011;58360;0.000;0.000;2023-02-28T11:26:58;4.70;;;2.17;;
70761;SDS011;58360;0.000;0.000;2023-02-28T11:29:25;3.88;;;2.10;;
70761;SDS011;58360;0.000;0.000;2023-02-28T11:34:37;6.10;;;2.17;;
70761;SDS011;58360;0.000;0.000;2023-02-28T11:37:04;4.45;;;1.95;;
70761;SDS011;58360;0.000;0.000;2023-02-28T11:39:34;4.60;;;2.10;;
70761;SDS011;58360;0.000;0.000;2023-02-28T11:42:11;4.95;;;2.10;;
70761;SDS011;58360;0.000;0.000;2023-02-28T11:44:58;4.35;;;2.20;;
70761;SDS011;58360;0.000;0.000;2023-02-28T11:47:31;4.50;;;2.03;;
70761;SDS011;58360;0.000;0.000;2023-02-28T11:50:07;17.02;;;3.67;;
70761;SDS011;58360;0.000;0.000;2023-02-28T11:56:06;10.65;;;4.32;;
70761;SDS011;58360;0.000;0.000;2023-02-28T12:01:32;4.63;;;2.58;;
70761;SDS011;58360;0.000;0.000;2023-02-28T12:09:53;10.85;;;2.35;;
70761;SDS011;58360;0.000;0.000;2023-02-28T12:12:50;5.80;;;2.47;;
70761;SDS011;58360;0.000;0.000;2023-02-28T12:18:37;4.53;;;2.30;;
70761;SDS011;58360;0.000;0.000;2023-02-28T12:24:21;8.57;;;2.58;;
70761;SDS011;58360;0.000;0.000;2023-02-28T12:26:54;4.70;;;2.70;;
70761;SDS011;58360;0.000;0.000;2023-02-28T12:29:32;8.55;;;2.83;;
70761;SDS011;58360;0.000;0.000;2023-02-28T12:32:27;5.57;;;2.47;;
70761;SDS011;58360;0.000;0.000;2023-02-28T12:34:56;4.55;;;2.50;;
70761;SDS011;58360;0.000;0.000;2023-02-28T12:37:57;6.43;;;2.30;;
70761;SDS011;58360;0.000;0.000;2023-02-28T12:43:22;5.05;;;2.47;;
70761;SDS011;58360;0.000;0.000;2023-02-28T12:45:56;4.63;;;2.42;;
70761;SDS011;58360;0.000;0.000;2023-02-28T12:48:31;5.03;;;2.35;;
70761;SDS011;58360;0.000;0.000;2023-02-28T12:51:11;4.10;;;2.13;;
70761;SDS011;58360;0.000;0.000;2023-02-28T12:53:46;10.52;;;2.38;;
70761;SDS011;58360;0.000;0.000;2023-02-28T12:56:39;5.95;;;2.45;;
70761;SDS011;58360;0.000;0.000;2023-02-28T12:59:17;4.07;;;2.10;;
70761;SDS011;58360;0.000;0.000;2023-02-28T13:10:11;5.03;;;2.50;;
70761;SDS011;58360;0.000;0.000;2023-02-28T13:12:47;14.82;;;2.70;;
70761;SDS011;58360;0.000;0.000;2023-02-28T13:15:19;5.55;;;2.40;;
70761;SDS011;58360;0.000;0.000;2023-02-28T13:17:54;4.38;;;2.28;;
70761;SDS011;58360;0.000;0.000;2023-02-28T13:20:23;6.40;;;2.30;;
70761;SDS011;58360;0.000;0.000;2023-02-28T13:22:59;16.65;;;3.65;;
70761;SDS011;58360;0.000;0.000;2023-02-28T13:27:58;4.93;;;2.30;;
70761;SDS011;58360;0.000;0.000;2023-02-28T13:33:31;5.47;;;2.28;;
70761;SDS011;58360;0.000;0.000;2023-02-28T13:36:09;5.15;;;2.15;;
70761;SDS011;58360;0.000;0.000;2023-02-28T13:38:57;5.93;;;2.63;;
70761;SDS011;58360;0.000;0.000;2023-02-28T13:44:02;5.53;;;2.90;;
70761;SDS011;58360;0.000;0.000;2023-02-28T13:47:24;5.88;;;2.50;;
70761;SDS011;58360;0.000;0.000;2023-02-28T13:49:28;6.15;;;2.60;;
70761;SDS011;58360;0.000;0.000;2023-02-28T13:57:27;4.68;;;2.40;;
70761;SDS011;58360;0.000;0.000;2023-02-28T14:00:16;5.32;;;2.45;;
70761;SDS011;58360;0.000;0.000;2023-02-28T14:09:02;5.88;;;2.60;;
70761;SDS011;58360;0.000;0.000;2023-02-28T14:11:34;8.02;;;2.53;;
70761;SDS011;58360;0.000;0.000;2023-02-28T14:14:02;4.85;;;2.33;;
70761;SDS011;58360;0.000;0.000;2023-02-28T14:16:50;6.85;;;2.58;;
70761;SDS011;58360;0.000;0.000;2023-02-28T14:19:19;5.57;;;2.90;;
70761;SDS011;58360;0.000;0.000;2023-02-28T14:35:16;6.45;;;3.15;;
70761;SDS011;58360;0.000;0.000;2023-02-28T14:38:13;6.55;;;3.08;;
70761;SDS011;58360;0.000;0.000;2023-02-28T14:40:43;6.35;;;3.13;;
70761;SDS011;58360;0.000;0.000;2023-02-28T14:43:27;5.35;;;2.88;;
70761;SDS011;58360;0.000;0.000;2023-02-28T14:45:58;4.70;;;2.60;;
70761;SDS011;58360;0.000;0.000;2023-02-28T14:48:26;5.95;;;2.90;;
70761;SDS011;58360;0.000;0.000;2023-02-28T14:50:57;7.93;;;2.72;;
70761;SDS011;58360;0.000;0.000;2023-02-28T14:53:45;3.92;;;2.33;;
70761;SDS011;58360;0.000;0.000;2023-02-28T14:56:30;15.68;;;2.95;;
70761;SDS011;58360;0.000;0.000;2023-02-28T14:59:00;6.95;;;2.95;;
70761;SDS011;58360;0.000;0.000;2023-02-28T15:01:26;6.85;;;2.75;;
70761;SDS011;58360;0.000;0.000;2023-02-28T15:04:00;5.50;;;2.75;;
70761;SDS011;58360;0.000;0.000;2023-02-28T15:06:27;6.55;;;2.95;;
70761;SDS011;58360;0.000;0.000;2023-02-28T15:09:10;6.93;;;3.05;;
70761;SDS011;58360;0.000;0.000;2023-02-28T15:11:41;8.07;;;2.58;;
70761;SDS011;58360;0.000;0.000;2023-02-28T15:14:13;7.35;;;2.90;;
70761;SDS011;58360;0.000;0.000;2023-02-28T15:16:46;6.35;;;2.80;;
70761;SDS011;58360;0.000;0.000;2023-02-28T15:19:26;9.10;;;2.75;;
70761;SDS011;58360;0.000;0.000;2023-02-28T15:21:58;8.07;;;3.25;;
70761;SDS011;58360;0.000;0.000;2023-02-28T15:27:12;5.53;;;2.85;;
70761;SDS011;58360;0.000;0.000;2023-02-28T15:29:47;5.97;;;2.90;;
70761;SDS011;58360;0.000;0.000;2023-02-28T15:32:37;5.97;;;3.22;;
70761;SDS011;58360;0.000;0.000;2023-02-28T15:37:55;7.53;;;2.95;;
70761;SDS011;58360;0.000;0.000;2023-02-28T15:40:29;6.18;;;2.83;;
70761;SDS011;58360;0.000;0.000;2023-02-28T15:42:58;6.35;;;3.05;;
70761;SDS011;58360;0.000;0.000;2023-02-28T15:45:48;5.50;;;3.10;;
70761;SDS011;58360;0.000;0.000;2023-02-28T15:50:51;6.07;;;3.10;;
70761;SDS011;58360;0.000;0.000;2023-02-28T15:53:21;9.70;;;3.20;;
70761;SDS011;58360;0.000;0.000;2023-02-28T15:55:54;5.25;;;2.80;;
70761;SDS011;58360;0.000;0.000;2023-02-28T15:58:23;5.85;;;3.10;;
70761;SDS011;58360;0.000;0.000;2023-02-28T16:01:00;5.57;;;3.03;;
70761;SDS011;58360;0.000;0.000;2023-02-28T16:03:38;7.47;;;3.40;;
70761;SDS011;58360;0.000;0.000;2023-02-28T16:06:09;7.05;;;3.38;;
70761;SDS011;58360;0.000;0.000;2023-02-28T16:08:55;8.65;;;3.17;;
70761;SDS011;58360;0.000;0.000;2023-02-28T16:11:21;6.78;;;3.00;;
70761;SDS011;58360;0.000;0.000;2023-02-28T16:13:47;6.35;;;3.55;;
70761;SDS011;58360;0.000;0.000;2023-02-28T16:16:17;7.30;;;3.28;;
70761;SDS011;58360;0.000;0.000;2023-02-28T16:18:47;6.97;;;3.17;;
70761;SDS011;58360;0.000;0.000;2023-02-28T16:21:13;6.32;;;3.47;;
70761;SDS011;58360;0.000;0.000;2023-02-28T16:23:39;9.70;;;3.17;;
70761;SDS011;58360;0.000;0.000;2023-02-28T16:26:05;6.07;;;3.50;;
70761;SDS011;58360;0.000;0.000;2023-02-28T16:28:33;5.80;;;3.28;;
70761;SDS011;58360;0.000;0.000;2023-02-28T16:31:02;6.20;;;3.00;;
70761;SDS011;58360;0.000;0.000;2023-02-28T16:33:30;7.18;;;3.22;;
70761;SDS011;58360;0.000;0.000;2023-02-28T16:35:57;8.45;;;3.58;;
70761;SDS011;58360;0.000;0.000;2023-02-28T16:38:23;9.18;;;3.58;;
70761;SDS011;58360;0.000;0.000;2023-02-28T16:40:50;7.07;;;3.45;;
70761;SDS011;58360;0.000;0.000;2023-02-28T16:43:20;6.05;;;3.47;;
70761;SDS011;58360;0.000;0.000;2023-02-28T16:45:50;6.35;;;3.20;;
70761;SDS011;58360;0.000;0.000;2023-02-28T16:48:23;5.93;;;3.10;;
70761;SDS011;58360;0.000;0.000;2023-02-28T16:50:50;9.55;;;3.65;;
70761;SDS011;58360;0.000;0.000;2023-02-28T16:53:16;8.40;;;3.70;;
70761;SDS011;58360;0.000;0.000;2023-02-28T16:55:42;7.78;;;3.40;;
70761;SDS011;58360;0.000;0.000;2023-02-28T16:58:10;4.82;;;3.15;;
70761;SDS011;58360;0.000;0.000;2023-02-28T17:00:40;12.18;;;3.47;;
70761;SDS011;58360;0.000;0.000;2023-02-28T17:03:09;7.93;;;3.70;;
70761;SDS011;58360;0.000;0.000;2023-02-28T17:05:50;8.68;;;4.28;;
70761;SDS011;58360;0.000;0.000;2023-02-28T17:08:16;7.30;;;3.63;;
70761;SDS011;58360;0.000;0.000;2023-02-28T17:10:42;5.40;;;3.28;;
70761;SDS011;58360;0.000;0.000;2023-02-28T17:13:08;8.50;;;3.78;;
70761;SDS011;58360;0.000;0.000;2023-02-28T17:15:34;7.80;;;3.97;;
70761;SDS011;58360;0.000;0.000;2023-02-28T17:18:00;6.07;;;3.40;;
70761;SDS011;58360;0.000;0.000;2023-02-28T17:20:26;7.05;;;3.40;;
70761;SDS011;58360;0.000;0.000;2023-02-28T17:22:52;10.57;;;3.78;;
70761;SDS011;58360;0.000;0.000;2023-02-28T17:25:19;6.07;;;3.45;;
70761;SDS011;58360;0.000;0.000;2023-02-28T17:27:45;6.88;;;3.42;;
70761;SDS011;58360;0.000;0.000;2023-02-28T17:30:16;6.75;;;3.63;;
70761;SDS011;58360;0.000;0.000;2023-02-28T17:32:44;9.93;;;3.75;;